EGCCLGSM

Guest
Details From EGCC - Manchester
To LGSM - Samos
Flight Number -
Tags Generated
Created
Modified
Stats Distance 1,529 nm / 2,832 km
Max Altitude 0 ft / 0 m
Waypoints 9
Social Downloads 1
Likes 0
Share VATSIM

Download

Looking for another format? Having issues loading an existing format? Contact us
Advertisement - Login to hide

Notes

Generated

Route

EGCC REFSO HND09 MANAL TEBLI DOLEV ARNAS REDRA LGSM

ID Type Via Altitude Latitude Longitude Leg Dist Tot Dist Heading (true) Name
O EGCC APT - 0 ft / 0 m 53.33197˚ -2.31066˚ - 0 nm - -
REFSO FIX - 0 ft / 0 m 51.80944˚ 2.66695˚ 203 nm 203 nm 115° / 119° -
HND09 FIX - 0 ft / 0 m 49.96448˚ 7.36664˚ 209 nm 413 nm 120° / 124° -
MANAL FIX - 0 ft / 0 m 47.89945˚ 11.80000˚ 214 nm 627 nm 124° / 127° -
TEBLI FIX - 0 ft / 0 m 45.20139˚ 16.67583˚ 258 nm 885 nm 127° / 131° -
DOLEV FIX - 0 ft / 0 m 42.83389˚ 20.31139˚ 211 nm 1097 nm 131° / 133° -
ARNAS FIX - 0 ft / 0 m 40.52806˚ 23.48056˚ 198 nm 1295 nm 133° / 135° -
REDRA FIX - 0 ft / 0 m 37.98222˚ 26.52444˚ 208 nm 1504 nm 136° / 138° -
O LGSM APT - 0 ft / 0 m 37.68966˚ 26.89957˚ 25 nm 1529 nm 135° / 135° -

Altitude Profile

Advertisement - Login to hide

Weather


0- 5 10 15 20 25 30 35+ Temperature / ° C

Clouds and Precipitation
Forecast for 2018-05-25 12:00 UTC. Updated 6 hours ago

Ground ~20,000 ft ~40,000 ft Winds

EGCC

Details ICAO EGCC (MAN)
Name Manchester Intl
Region United Kingdom
Timezone Europe/London (UTC+1.0)
Stats Elevation 257 ft / 78 m (AMSL)
Location 53.347141° -2.283954°
Runways 2
Magnetic Variation 1.392° W

METAR

EGCC 251720Z 05012KT 9999 FEW015 BKN022 15/12 Q1020

Decode

TAF

TAF EGCC 251057Z 2512/2618 03009KT 9999 SCT040 TEMPO 2512/2515 7000 SHRA PROB40 TEMPO 2512/2514 3000 +SHRA BKN014 TEMPO 2514/2609 BKN012 PROB30 TEMPO 2521/2606 8000 BKN008 PROB30 TEMPO 2607/2615 7000 SHRA

Decode

Departure Runways

ID Width Length Bearing (true) Bearing (mag) Surface Threshold Offset Overrun Length
05L 151 ft / 46 m 9,981 ft / 3,042 m 50.99° 52.38° Asphalt 1,401 ft / 427 m 0 ft / 0 m
05R 151 ft / 46 m 9,952 ft / 3,033 m 50.97° 52.36° Asphalt 0 ft / 0 m 26 ft / 8 m
23L 151 ft / 46 m 9,952 ft / 3,033 m 231.00° 232.39° Asphalt 561 ft / 171 m 0 ft / 0 m
23R 151 ft / 46 m 9,981 ft / 3,042 m 231.02° 232.41° Asphalt 597 ft / 182 m 0 ft / 0 m

LGSM

Details ICAO LGSM (SMI)
Name SAMOS
Region Greece
Timezone Europe/Athens (UTC+3.0)
Stats Elevation 19 ft / 6 m (AMSL)
Location 37.689012° 26.911123°
Runways 1
Magnetic Variation 4.844° E

METAR

LGSM 251650Z 34007KT 9999 FEW025 23/15 Q1006

Decode

TAF

Not found

Destination Runways

ID Width Length Bearing (true) Bearing (mag) Surface Threshold Offset Overrun Length
09 148 ft / 45 m 6,690 ft / 2,039 m 94.02° 89.18° Asphalt 230 ft / 70 m 0 ft / 0 m
27 148 ft / 45 m 6,690 ft / 2,039 m 274.03° 269.19° Asphalt 0 ft / 0 m 0 ft / 0 m

Popular Alternatives